PWSweather.com
Personal Weather Stations
Station Observations
SUBOTICARS
SuboticaYU

SuboticaYU

Lat: 46.1296717, Lon: 19.641551

Elevation: 361

Station Type: Nexus

http://sumeteo.info

Latest ConditionsUpdated 8:40:01 PM GMT+01:01 Saturday, Apr 25, 2015
Currently Today's Max Today's Min Today's Average
Temperature 55.6°F13.1°C 74.7°F23.7°C 43.7°F6.5°C 61.5°F16.4°C
Dew Point 43.2°F6.2°C 50.2°F10.1°C 36.0°F2.2°C 44.2°F6.8°C
Winds Calm Calm 8.1 mph SW13.0 kmh SW - 2.9 mph 4.7 kmh
Wind Gusts -- 13.8 mph22.2 kmh - -
Humidity 63% 76% 35% 55%
Pressure 29.98 in1015.2 mb 30.09 in1019.0 mb 29.95 in1014.2 mb -
Hour Temp Dew Point Humidity Winds Wind Gusts Pressure Precip Precip Rate Daily Precip Total
08:40 PM 55.6°F13.1°C 43.2°F6.2°C 63% Calm Calm -- 29.98 in1015.2 mb - 0.00 in0.0 mm 0.00 in0.0 mm
08:30 PM 56.1°F13.4°C 43.7°F6.5°C 63% Calm Calm -- 29.98 in1015.2 mb - 0.00 in0.0 mm 0.00 in0.0 mm
08:20 PM 57.0°F13.9°C 43.7°F6.5°C 61% Calm Calm -- 29.98 in1015.2 mb - 0.00 in0.0 mm 0.00 in0.0 mm
08:10 PM 57.7°F14.3°C 43.9°F6.6°C 60% Calm Calm -- 29.98 in1015.2 mb - 0.00 in0.0 mm 0.00 in0.0 mm
08:00 PM 59.0°F15.0°C 44.2°F6.8°C 58% Calm Calm -- 29.98 in1015.2 mb - 0.00 in0.0 mm 0.00 in0.0 mm
07:50 PM 59.4°F15.2°C 44.1°F6.7°C 57% Calm Calm -- 29.97 in1014.9 mb - 0.00 in0.0 mm 0.00 in0.0 mm
07:40 PM 60.8°F16.0°C 44.0°F6.7°C 54% Calm Calm -- 29.97 in1014.9 mb - 0.00 in0.0 mm 0.00 in0.0 mm
07:30 PM 61.7°F16.5°C 44.4°F6.9°C 53% Calm Calm -- 29.97 in1014.9 mb - 0.00 in0.0 mm 0.00 in0.0 mm
07:20 PM 63.1°F17.3°C 44.7°F7.1°C 51% Calm Calm -- 29.97 in1014.9 mb - 0.00 in0.0 mm 0.00 in0.0 mm
07:10 PM 63.9°F17.7°C 44.9°F7.2°C 50% Calm Calm -- 29.96 in1014.6 mb - 0.00 in0.0 mm 0.00 in0.0 mm
07:00 PM 65.3°F18.5°C 45.1°F7.3°C 48% Calm Calm -- 29.96 in1014.6 mb - 0.00 in0.0 mm 0.00 in0.0 mm
06:50 PM 65.8°F18.8°C 45.0°F7.2°C 47% Calm Calm -- 29.96 in1014.6 mb - 0.00 in0.0 mm 0.00 in0.0 mm
06:40 PM 66.9°F19.4°C 44.9°F7.2°C 45% 1.2 mph SW1.9 kmh SW 2.3 mph3.7 kmh 29.96 in1014.6 mb - 0.00 in0.0 mm 0.00 in0.0 mm
06:30 PM 67.6°F19.8°C 44.9°F7.2°C 44% 1.2 mph WSW1.9 kmh WSW 2.3 mph3.7 kmh 29.96 in1014.6 mb - 0.00 in0.0 mm 0.00 in0.0 mm
06:20 PM 68.5°F20.3°C 45.1°F7.3°C 43% 2.3 mph SSW3.7 kmh SSW 2.3 mph3.7 kmh 29.96 in1014.6 mb - 0.00 in0.0 mm 0.00 in0.0 mm
06:10 PM 69.1°F20.6°C 45.6°F7.6°C 43% 3.5 mph SW5.6 kmh SW 3.5 mph5.6 kmh 29.95 in1014.2 mb - 0.00 in0.0 mm 0.00 in0.0 mm
06:00 PM 69.8°F21.0°C 45.0°F7.2°C 41% 3.5 mph SW5.6 kmh SW 4.6 mph7.4 kmh 29.95 in1014.2 mb - 0.00 in0.0 mm 0.00 in0.0 mm
05:50 PM 70.3°F21.3°C 44.9°F7.2°C 40% 4.6 mph SW7.4 kmh SW 5.8 mph9.3 kmh 29.95 in1014.2 mb - 0.00 in0.0 mm 0.00 in0.0 mm
05:40 PM 70.9°F21.6°C 45.3°F7.4°C 40% 4.6 mph SW7.4 kmh SW 5.8 mph9.3 kmh 29.95 in1014.2 mb - 0.00 in0.0 mm 0.00 in0.0 mm
05:30 PM 71.4°F21.9°C 45.2°F7.3°C 39% 5.8 mph W9.3 kmh W 6.9 mph11.1 kmh 29.95 in1014.2 mb - 0.00 in0.0 mm 0.00 in0.0 mm
05:20 PM 72.0°F22.2°C 45.0°F7.2°C 38% 5.8 mph SSW9.3 kmh SSW 8.1 mph13.0 kmh 29.95 in1014.2 mb - 0.00 in0.0 mm 0.00 in0.0 mm
05:10 PM 72.5°F22.5°C 45.4°F7.4°C 38% 5.8 mph SSW9.3 kmh SSW 5.8 mph9.3 kmh 29.96 in1014.6 mb - 0.00 in0.0 mm 0.00 in0.0 mm
05:00 PM 72.7°F22.6°C 44.9°F7.2°C 37% 6.9 mph SSW11.1 kmh SSW 6.9 mph11.1 kmh 29.96 in1014.6 mb - 0.00 in0.0 mm 0.00 in0.0 mm
04:50 PM 72.9°F22.7°C 44.3°F6.8°C 36% 6.9 mph SSW11.1 kmh SSW 8.1 mph13.0 kmh 29.96 in1014.6 mb - 0.00 in0.0 mm 0.00 in0.0 mm
04:40 PM 73.4°F23.0°C 45.5°F7.5°C 37% 4.6 mph WSW7.4 kmh WSW 11.5 mph18.5 kmh 29.96 in1014.6 mb - 0.00 in0.0 mm 0.00 in0.0 mm
04:30 PM 73.4°F23.0°C 45.5°F7.5°C 37% 4.6 mph WSW7.4 kmh WSW 3.5 mph5.6 kmh 29.96 in1014.6 mb - 0.00 in0.0 mm 0.00 in0.0 mm
04:20 PM 73.6°F23.1°C 45.7°F7.6°C 37% 6.9 mph S11.1 kmh S 4.6 mph7.4 kmh 29.96 in1014.6 mb - 0.00 in0.0 mm 0.00 in0.0 mm
04:10 PM 73.9°F23.3°C 46.0°F7.8°C 37% 4.6 mph W7.4 kmh W 3.5 mph5.6 kmh 29.96 in1014.6 mb - 0.00 in0.0 mm 0.00 in0.0 mm
04:00 PM 73.9°F23.3°C 45.3°F7.4°C 36% 6.9 mph S11.1 kmh S 5.8 mph9.3 kmh 29.96 in1014.6 mb - 0.00 in0.0 mm 0.00 in0.0 mm
03:50 PM 74.3°F23.5°C 45.6°F7.6°C 36% 5.8 mph WSW9.3 kmh WSW 3.5 mph5.6 kmh 29.97 in1014.9 mb - 0.00 in0.0 mm 0.00 in0.0 mm
03:40 PM 74.3°F23.5°C 44.9°F7.2°C 35% 6.9 mph SW11.1 kmh SW 5.8 mph9.3 kmh 29.97 in1014.9 mb - 0.00 in0.0 mm 0.00 in0.0 mm
03:30 PM 74.3°F23.5°C 45.6°F7.6°C 36% 5.8 mph SSW9.3 kmh SSW 9.2 mph14.8 kmh 29.97 in1014.9 mb - 0.00 in0.0 mm 0.00 in0.0 mm
03:20 PM 74.3°F23.5°C 44.9°F7.2°C 35% 6.9 mph SSW11.1 kmh SSW 8.1 mph13.0 kmh 29.97 in1014.9 mb - 0.00 in0.0 mm 0.00 in0.0 mm
03:10 PM 74.3°F23.5°C 45.6°F7.6°C 36% 5.8 mph WSW9.3 kmh WSW 4.6 mph7.4 kmh 29.98 in1015.2 mb - 0.00 in0.0 mm 0.00 in0.0 mm
03:00 PM 74.5°F23.6°C 45.8°F7.7°C 36% 4.6 mph 7.4 kmh 2.3 mph3.7 kmh 29.98 in1015.2 mb - 0.00 in0.0 mm 0.00 in0.0 mm
02:50 PM 74.3°F23.5°C 45.6°F7.6°C 36% 5.8 mph SSW9.3 kmh SSW 9.2 mph14.8 kmh 29.98 in1015.2 mb - 0.00 in0.0 mm 0.00 in0.0 mm
02:40 PM 74.1°F23.4°C 45.5°F7.5°C 36% 8.1 mph S13.0 kmh S 9.2 mph14.8 kmh 29.98 in1015.2 mb - 0.00 in0.0 mm 0.00 in0.0 mm
02:30 PM 74.3°F23.5°C 46.3°F7.9°C 37% 8.1 mph SW13.0 kmh SW 10.4 mph16.7 kmh 29.98 in1015.2 mb - 0.00 in0.0 mm 0.00 in0.0 mm
02:20 PM 74.7°F23.7°C 46.7°F8.2°C 37% 5.8 mph SW9.3 kmh SW 10.4 mph16.7 kmh 29.98 in1015.2 mb - 0.00 in0.0 mm 0.00 in0.0 mm
02:10 PM 74.3°F23.5°C 47.0°F8.3°C 38% 5.8 mph WSW9.3 kmh WSW 13.8 mph22.2 kmh 30.00 in1015.9 mb - 0.00 in0.0 mm 0.00 in0.0 mm
02:00 PM 74.7°F23.7°C 46.7°F8.2°C 37% 5.8 mph S9.3 kmh S 6.9 mph11.1 kmh 30.00 in1015.9 mb - 0.00 in0.0 mm 0.00 in0.0 mm
01:50 PM 74.3°F23.5°C 46.3°F7.9°C 37% 6.9 mph S11.1 kmh S 11.5 mph18.5 kmh 30.01 in1016.3 mb - 0.00 in0.0 mm 0.00 in0.0 mm
01:40 PM 73.9°F23.3°C 46.7°F8.2°C 38% 6.9 mph SSW11.1 kmh SSW 6.9 mph11.1 kmh 30.01 in1016.3 mb - 0.00 in0.0 mm 0.00 in0.0 mm
01:30 PM 73.9°F23.3°C 46.7°F8.2°C 38% 6.9 mph SSW11.1 kmh SSW 6.9 mph11.1 kmh 30.01 in1016.3 mb - 0.00 in0.0 mm 0.00 in0.0 mm
01:20 PM 73.8°F23.2°C 47.3°F8.5°C 39% 8.1 mph SW13.0 kmh SW 6.9 mph11.1 kmh 30.01 in1016.3 mb - 0.00 in0.0 mm 0.00 in0.0 mm
01:10 PM 73.9°F23.3°C 47.4°F8.6°C 39% 6.9 mph S11.1 kmh S 8.1 mph13.0 kmh 30.02 in1016.6 mb - 0.00 in0.0 mm 0.00 in0.0 mm
01:00 PM 73.2°F22.9°C 47.4°F8.6°C 40% 6.9 mph SE11.1 kmh SE 4.6 mph7.4 kmh 30.02 in1016.6 mb - 0.00 in0.0 mm 0.00 in0.0 mm
12:50 PM 72.9°F22.7°C 47.1°F8.4°C 40% 6.9 mph SW11.1 kmh SW 5.8 mph9.3 kmh 30.03 in1016.9 mb - 0.00 in0.0 mm 0.00 in0.0 mm
12:40 PM 72.7°F22.6°C 47.6°F8.7°C 41% 6.9 mph S11.1 kmh S 6.9 mph11.1 kmh 30.03 in1016.9 mb - 0.00 in0.0 mm 0.00 in0.0 mm
12:30 PM 73.0°F22.8°C 47.3°F8.5°C 40% 6.9 mph S11.1 kmh S 13.8 mph22.2 kmh 30.04 in1017.3 mb - 0.00 in0.0 mm 0.00 in0.0 mm
12:20 PM 72.0°F22.2°C 47.6°F8.7°C 42% 6.9 mph SSW11.1 kmh SSW 9.2 mph14.8 kmh 30.04 in1017.3 mb - 0.00 in0.0 mm 0.00 in0.0 mm
12:10 PM 72.0°F22.2°C 47.6°F8.7°C 42% 8.1 mph S13.0 kmh S 10.4 mph16.7 kmh 30.04 in1017.3 mb - 0.00 in0.0 mm 0.00 in0.0 mm
12:00 PM 72.1°F22.3°C 48.4°F9.1°C 43% 8.1 mph SSW13.0 kmh SSW 10.4 mph16.7 kmh 30.04 in1017.3 mb - 0.00 in0.0 mm 0.00 in0.0 mm
11:50 AM 72.1°F22.3°C 47.8°F8.8°C 42% 8.1 mph SW13.0 kmh SW 12.7 mph20.4 kmh 30.05 in1017.6 mb - 0.00 in0.0 mm 0.00 in0.0 mm
11:40 AM 72.5°F22.5°C 48.7°F9.3°C 43% 6.9 mph SSE11.1 kmh SSE 4.6 mph7.4 kmh 30.05 in1017.6 mb - 0.00 in0.0 mm 0.00 in0.0 mm
11:30 AM 71.8°F22.1°C 48.1°F8.9°C 43% 6.9 mph SW11.1 kmh SW 8.1 mph13.0 kmh 30.06 in1017.9 mb - 0.00 in0.0 mm 0.00 in0.0 mm
11:20 AM 71.6°F22.0°C 47.9°F8.8°C 43% 5.8 mph SW9.3 kmh SW 8.1 mph13.0 kmh 30.06 in1017.9 mb - 0.00 in0.0 mm 0.00 in0.0 mm
11:10 AM 71.4°F21.9°C 49.0°F9.4°C 45% 4.6 mph SW7.4 kmh SW 13.8 mph22.2 kmh 30.06 in1017.9 mb - 0.00 in0.0 mm 0.00 in0.0 mm
11:00 AM 70.5°F21.4°C 47.5°F8.6°C 44% 6.9 mph S11.1 kmh S 8.1 mph13.0 kmh 30.06 in1017.9 mb - 0.00 in0.0 mm 0.00 in0.0 mm
10:50 AM 70.3°F21.3°C 48.0°F8.9°C 45% 6.9 mph SE11.1 kmh SE 9.2 mph14.8 kmh 30.06 in1017.9 mb - 0.00 in0.0 mm 0.00 in0.0 mm
10:40 AM 69.8°F21.0°C 48.1°F8.9°C 46% 4.6 mph S7.4 kmh S 6.9 mph11.1 kmh 30.06 in1017.9 mb - 0.00 in0.0 mm 0.00 in0.0 mm
10:30 AM 69.3°F20.7°C 49.3°F9.6°C 49% 4.6 mph SSW7.4 kmh SSW 4.6 mph7.4 kmh 30.07 in1018.3 mb - 0.00 in0.0 mm 0.00 in0.0 mm
10:20 AM 69.1°F20.6°C 49.7°F9.8°C 50% 4.6 mph SW7.4 kmh SW 5.8 mph9.3 kmh 30.07 in1018.3 mb - 0.00 in0.0 mm 0.00 in0.0 mm
10:10 AM 68.9°F20.5°C 49.5°F9.7°C 50% 4.6 mph SE7.4 kmh SE 2.3 mph3.7 kmh 30.07 in1018.3 mb - 0.00 in0.0 mm 0.00 in0.0 mm
10:00 AM 68.2°F20.1°C 49.4°F9.7°C 51% 3.5 mph S5.6 kmh S 6.9 mph11.1 kmh 30.07 in1018.3 mb - 0.00 in0.0 mm 0.00 in0.0 mm
09:50 AM 68.2°F20.1°C 49.9°F9.9°C 52% 3.5 mph SW5.6 kmh SW 5.8 mph9.3 kmh 30.07 in1018.3 mb - 0.00 in0.0 mm 0.00 in0.0 mm
09:40 AM 67.6°F19.8°C 48.9°F9.4°C 51% 3.5 mph ESE5.6 kmh ESE 6.9 mph11.1 kmh 30.07 in1018.3 mb - 0.00 in0.0 mm 0.00 in0.0 mm
09:30 AM 66.9°F19.4°C 49.2°F9.6°C 53% 2.3 mph SSW3.7 kmh SSW 2.3 mph3.7 kmh 30.08 in1018.6 mb - 0.00 in0.0 mm 0.00 in0.0 mm
09:20 AM 66.4°F19.1°C 50.2°F10.1°C 56% 2.3 mph SSE3.7 kmh SSE 3.5 mph5.6 kmh 30.08 in1018.6 mb - 0.00 in0.0 mm 0.00 in0.0 mm
09:10 AM 65.8°F18.8°C 49.7°F9.8°C 56% 2.3 mph SSE3.7 kmh SSE 2.3 mph3.7 kmh 30.08 in1018.6 mb - 0.00 in0.0 mm 0.00 in0.0 mm
09:00 AM 65.5°F18.6°C 49.4°F9.7°C 56% 3.5 mph WSW5.6 kmh WSW 5.8 mph9.3 kmh 30.08 in1018.6 mb - 0.00 in0.0 mm 0.00 in0.0 mm
08:50 AM 64.8°F18.2°C 49.2°F9.6°C 57% 2.3 mph SW3.7 kmh SW 8.1 mph13.0 kmh 30.09 in1019.0 mb - 0.00 in0.0 mm 0.00 in0.0 mm
08:40 AM 64.4°F18.0°C 50.2°F10.1°C 60% 2.3 mph WSW3.7 kmh WSW 2.3 mph3.7 kmh 30.09 in1019.0 mb - 0.00 in0.0 mm 0.00 in0.0 mm
08:30 AM 63.9°F17.7°C 49.7°F9.8°C 60% 2.3 mph NNW3.7 kmh NNW 2.3 mph3.7 kmh 30.09 in1019.0 mb - 0.00 in0.0 mm 0.00 in0.0 mm
08:20 AM 63.5°F17.5°C 50.2°F10.1°C 62% 2.3 mph WNW3.7 kmh WNW 4.6 mph7.4 kmh 30.09 in1019.0 mb - 0.00 in0.0 mm 0.00 in0.0 mm
08:10 AM 62.8°F17.1°C 50.0°F10.0°C 63% 2.3 mph SSW3.7 kmh SSW 3.5 mph5.6 kmh 30.09 in1019.0 mb - 0.00 in0.0 mm 0.00 in0.0 mm
08:00 AM 61.7°F16.5°C 49.4°F9.7°C 64% 2.3 mph W3.7 kmh W 5.8 mph9.3 kmh 30.09 in1019.0 mb - 0.00 in0.0 mm 0.00 in0.0 mm
07:50 AM 61.2°F16.2°C 48.9°F9.4°C 64% 2.3 mph W3.7 kmh W 3.5 mph5.6 kmh 30.09 in1019.0 mb - 0.00 in0.0 mm 0.00 in0.0 mm
07:40 AM 59.7°F15.4°C 48.3°F9.1°C 66% 2.3 mph WSW3.7 kmh WSW 5.8 mph9.3 kmh 30.09 in1019.0 mb - 0.00 in0.0 mm 0.00 in0.0 mm
07:30 AM 59.2°F15.1°C 47.8°F8.8°C 66% 3.5 mph W5.6 kmh W 3.5 mph5.6 kmh 30.08 in1018.6 mb - 0.00 in0.0 mm 0.00 in0.0 mm
07:20 AM 57.7°F14.3°C 47.2°F8.4°C 68% 2.3 mph SSW3.7 kmh SSW 3.5 mph5.6 kmh 30.08 in1018.6 mb - 0.00 in0.0 mm 0.00 in0.0 mm
07:10 AM 56.3°F13.5°C 46.3°F7.9°C 69% 1.2 mph W1.9 kmh W 2.3 mph3.7 kmh 30.08 in1018.6 mb - 0.00 in0.0 mm 0.00 in0.0 mm
07:00 AM 54.5°F12.5°C 44.5°F6.9°C 69% 2.3 mph WSW3.7 kmh WSW 3.5 mph5.6 kmh 30.08 in1018.6 mb - 0.00 in0.0 mm 0.00 in0.0 mm
06:50 AM 53.8°F12.1°C 44.2°F6.8°C 70% 2.3 mph SW3.7 kmh SW 2.3 mph3.7 kmh 30.08 in1018.6 mb - 0.00 in0.0 mm 0.00 in0.0 mm
06:40 AM 52.5°F11.4°C 43.8°F6.6°C 72% 1.2 mph SW1.9 kmh SW 3.5 mph5.6 kmh 30.08 in1018.6 mb - 0.00 in0.0 mm 0.00 in0.0 mm
06:30 AM 51.3°F10.7°C 42.9°F6.1°C 73% Calm Calm 2.3 mph3.7 kmh 30.07 in1018.3 mb - 0.00 in0.0 mm 0.00 in0.0 mm
06:20 AM 49.6°F9.8°C 41.7°F5.4°C 74% 1.2 mph WSW1.9 kmh WSW 1.2 mph1.9 kmh 30.07 in1018.3 mb - 0.00 in0.0 mm 0.00 in0.0 mm
06:10 AM 48.9°F9.4°C 41.3°F5.2°C 75% 2.3 mph SW3.7 kmh SW 2.3 mph3.7 kmh 30.06 in1017.9 mb - 0.00 in0.0 mm 0.00 in0.0 mm
06:00 AM 47.7°F8.7°C 40.5°F4.7°C 76% 1.2 mph W1.9 kmh W 3.5 mph5.6 kmh 30.06 in1017.9 mb - 0.00 in0.0 mm 0.00 in0.0 mm
05:50 AM 46.9°F8.3°C 39.8°F4.3°C 76% 1.2 mph SW1.9 kmh SW 2.3 mph3.7 kmh 30.06 in1017.9 mb - 0.00 in0.0 mm 0.00 in0.0 mm
05:40 AM 45.9°F7.7°C 38.7°F3.7°C 76% Calm Calm -- 30.06 in1017.9 mb - 0.00 in0.0 mm 0.00 in0.0 mm
05:30 AM 45.3°F7.4°C 38.2°F3.4°C 76% Calm Calm -- 30.06 in1017.9 mb - 0.00 in0.0 mm 0.00 in0.0 mm
05:20 AM 44.8°F7.1°C 37.7°F3.2°C 76% Calm Calm -- 30.06 in1017.9 mb - 0.00 in0.0 mm 0.00 in0.0 mm
05:10 AM 44.4°F6.9°C 37.0°F2.8°C 75% Calm Calm -- 30.06 in1017.9 mb - 0.00 in0.0 mm 0.00 in0.0 mm
05:00 AM 43.9°F6.6°C 36.5°F2.5°C 75% Calm Calm 1.2 mph1.9 kmh 30.06 in1017.9 mb - 0.00 in0.0 mm 0.00 in0.0 mm
04:50 AM 43.7°F6.5°C 36.0°F2.2°C 74% Calm Calm -- 30.06 in1017.9 mb - 0.00 in0.0 mm 0.00 in0.0 mm
04:40 AM 44.2°F6.8°C 36.5°F2.5°C 74% Calm Calm -- 30.06 in1017.9 mb - 0.00 in0.0 mm 0.00 in0.0 mm
04:30 AM 44.6°F7.0°C 36.8°F2.7°C 74% Calm Calm -- 30.05 in1017.6 mb - 0.00 in0.0 mm 0.00 in0.0 mm
04:20 AM 45.0°F7.2°C 37.2°F2.9°C 74% Calm Calm -- 30.05 in1017.6 mb - 0.00 in0.0 mm 0.00 in0.0 mm
04:10 AM 45.1°F7.3°C 37.0°F2.8°C 73% Calm Calm -- 30.05 in1017.6 mb - 0.00 in0.0 mm 0.00 in0.0 mm
04:00 AM 45.1°F7.3°C 37.0°F2.8°C 73% Calm Calm -- 30.05 in1017.6 mb - 0.00 in0.0 mm 0.00 in0.0 mm
03:50 AM 45.3°F7.4°C 37.2°F2.9°C 73% Calm Calm 1.2 mph1.9 kmh 30.05 in1017.6 mb - 0.00 in0.0 mm 0.00 in0.0 mm
03:40 AM 45.7°F7.6°C 37.2°F2.9°C 72% Calm Calm -- 30.05 in1017.6 mb - 0.00 in0.0 mm 0.00 in0.0 mm
03:30 AM 46.0°F7.8°C 37.5°F3.1°C 72% Calm Calm -- 30.05 in1017.6 mb - 0.00 in0.0 mm 0.00 in0.0 mm
03:20 AM 46.6°F8.1°C 38.0°F3.3°C 72% Calm Calm -- 30.05 in1017.6 mb - 0.00 in0.0 mm 0.00 in0.0 mm
03:10 AM 46.9°F8.3°C 38.4°F3.6°C 72% Calm Calm -- 30.05 in1017.6 mb - 0.00 in0.0 mm 0.00 in0.0 mm
03:00 AM 47.5°F8.6°C 38.9°F3.8°C 72% Calm Calm -- 30.05 in1017.6 mb - 0.00 in0.0 mm 0.00 in0.0 mm
02:50 AM 47.7°F8.7°C 38.7°F3.7°C 71% Calm Calm -- 30.05 in1017.6 mb - 0.00 in0.0 mm 0.00 in0.0 mm
02:40 AM 48.0°F8.9°C 39.1°F3.9°C 71% Calm Calm -- 30.05 in1017.6 mb - 0.00 in0.0 mm 0.00 in0.0 mm
02:30 AM 48.0°F8.9°C 39.1°F3.9°C 71% Calm Calm 1.2 mph1.9 kmh 30.05 in1017.6 mb - 0.00 in0.0 mm 0.00 in0.0 mm
02:20 AM 48.2°F9.0°C 39.2°F4.0°C 71% Calm Calm -- 30.05 in1017.6 mb - 0.00 in0.0 mm 0.00 in0.0 mm
02:10 AM 48.2°F9.0°C 39.2°F4.0°C 71% Calm Calm -- 30.05 in1017.6 mb - 0.00 in0.0 mm 0.00 in0.0 mm
02:00 AM 48.7°F9.3°C 39.8°F4.3°C 71% Calm Calm -- 30.05 in1017.6 mb - 0.00 in0.0 mm 0.00 in0.0 mm
01:50 AM 48.7°F9.3°C 39.4°F4.1°C 70% Calm Calm -- 30.06 in1017.9 mb - 0.00 in0.0 mm 0.00 in0.0 mm
01:40 AM 49.1°F9.5°C 39.7°F4.3°C 70% Calm Calm -- 30.06 in1017.9 mb - 0.00 in0.0 mm 0.00 in0.0 mm
01:30 AM 49.5°F9.7°C 40.1°F4.5°C 70% Calm Calm 2.3 mph3.7 kmh 30.05 in1017.6 mb - 0.00 in0.0 mm 0.00 in0.0 mm
01:20 AM 49.5°F9.7°C 40.1°F4.5°C 70% 1.2 mph WSW1.9 kmh WSW 2.3 mph3.7 kmh 30.05 in1017.6 mb - 0.00 in0.0 mm 0.00 in0.0 mm
01:10 AM 49.5°F9.7°C 40.1°F4.5°C 70% Calm Calm 1.2 mph1.9 kmh 30.04 in1017.3 mb - 0.00 in0.0 mm 0.00 in0.0 mm
01:00 AM 49.8°F9.9°C 40.1°F4.5°C 69% Calm Calm 1.2 mph1.9 kmh 30.04 in1017.3 mb - 0.00 in0.0 mm 0.00 in0.0 mm
12:50 AM 49.8°F9.9°C 40.1°F4.5°C 69% Calm Calm -- 30.04 in1017.3 mb - 0.00 in0.0 mm 0.00 in0.0 mm
12:40 AM 49.6°F9.8°C 39.9°F4.4°C 69% Calm Calm -- 30.04 in1017.3 mb - 0.00 in0.0 mm 0.00 in0.0 mm
12:30 AM 49.3°F9.6°C 39.5°F4.2°C 69% 1.2 mph SW1.9 kmh SW 1.2 mph1.9 kmh 30.04 in1017.3 mb - 0.00 in0.0 mm 0.00 in0.0 mm
12:20 AM 48.9°F9.4°C 39.6°F4.2°C 70% 1.2 mph WSW1.9 kmh WSW -- 30.04 in1017.3 mb - 0.00 in0.0 mm 0.00 in0.0 mm
12:10 AM 48.2°F9.0°C 38.5°F3.6°C 69% Calm Calm 4.6 mph7.4 kmh 30.04 in1017.3 mb - 0.00 in0.0 mm 0.00 in0.0 mm
12:00 AM 48.7°F9.3°C 38.6°F3.7°C 68% Calm Calm -- 30.04 in1017.3 mb - 0.00 in0.0 mm 0.00 in0.0 mm